Weather at Naha Airport

Public forecast

Using degrees Celsius for public forecast. Weather courtesy of forecast.io.

Current aviation weather report (METAR) for Naha Airport

Retrieved 2021/01/25 23:30 UTC (0 seconds ago):

ROAH 252330Z 01003KT 9999 FEW015 20/17 Q1016

Aviation forecast (TAF) for Naha Airport

Retrieved 2021/01/25 18:29 UTC (5 hours ago):

TAF ROAH 251705Z 2518/2700 08003KT 9999 FEW020 SCT045 BECMG 2601/2602 01011KT